sensor_id;sensor_type;location;lat;lon;timestamp;temperature;humidity
41944;DHT22;27636;52.610;13.244;2024-02-16T00:00:08;9.80;99.90
41944;DHT22;27636;52.610;13.244;2024-02-16T00:05:16;9.80;99.90
41944;DHT22;27636;52.610;13.244;2024-02-16T00:10:21;9.70;99.90
41944;DHT22;27636;52.610;13.244;2024-02-16T00:15:26;9.60;99.90
41944;DHT22;27636;52.610;13.244;2024-02-16T00:20:30;9.60;99.90
41944;DHT22;27636;52.610;13.244;2024-02-16T00:25:38;9.60;99.90
41944;DHT22;27636;52.610;13.244;2024-02-16T00:30:44;9.60;99.90
41944;DHT22;27636;52.610;13.244;2024-02-16T00:35:48;9.50;99.90
41944;DHT22;27636;52.610;13.244;2024-02-16T00:40:55;9.40;99.90
41944;DHT22;27636;52.610;13.244;2024-02-16T00:45:58;9.40;99.90
41944;DHT22;27636;52.610;13.244;2024-02-16T00:51:03;9.40;99.90
41944;DHT22;27636;52.610;13.244;2024-02-16T00:56:09;9.20;99.90
41944;DHT22;27636;52.610;13.244;2024-02-16T01:01:17;9.10;99.90
41944;DHT22;27636;52.610;13.244;2024-02-16T01:06:22;9.30;99.90
41944;DHT22;27636;52.610;13.244;2024-02-16T01:11:27;9.40;99.90
41944;DHT22;27636;52.610;13.244;2024-02-16T01:16:31;9.20;99.90
41944;DHT22;27636;52.610;13.244;2024-02-16T01:21:35;9.00;99.90
41944;DHT22;27636;52.610;13.244;2024-02-16T01:26:40;8.90;99.90
41944;DHT22;27636;52.610;13.244;2024-02-16T01:31:44;8.90;99.90
41944;DHT22;27636;52.610;13.244;2024-02-16T01:36:50;8.80;99.90
41944;DHT22;27636;52.610;13.244;2024-02-16T01:41:56;8.80;99.90
41944;DHT22;27636;52.610;13.244;2024-02-16T01:47:00;8.90;99.90
41944;DHT22;27636;52.610;13.244;2024-02-16T01:52:06;8.90;99.90
41944;DHT22;27636;52.610;13.244;2024-02-16T01:57:15;9.10;99.90
41944;DHT22;27636;52.610;13.244;2024-02-16T02:02:20;9.10;99.90
41944;DHT22;27636;52.610;13.244;2024-02-16T02:07:25;9.20;99.90
41944;DHT22;27636;52.610;13.244;2024-02-16T02:12:36;9.40;99.90
41944;DHT22;27636;52.610;13.244;2024-02-16T02:17:40;9.40;99.90
41944;DHT22;27636;52.610;13.244;2024-02-16T02:22:50;9.30;99.90
41944;DHT22;27636;52.610;13.244;2024-02-16T02:27:55;9.40;99.90
41944;DHT22;27636;52.610;13.244;2024-02-16T02:32:59;9.40;99.90
41944;DHT22;27636;52.610;13.244;2024-02-16T02:38:05;9.50;99.90
41944;DHT22;27636;52.610;13.244;2024-02-16T02:43:11;9.60;99.90
41944;DHT22;27636;52.610;13.244;2024-02-16T02:48:18;9.50;99.90
41944;DHT22;27636;52.610;13.244;2024-02-16T03:00:34;9.40;99.90
41944;DHT22;27636;52.610;13.244;2024-02-16T03:05:41;9.20;99.90
41944;DHT22;27636;52.610;13.244;2024-02-16T03:10:46;9.00;99.90
41944;DHT22;27636;52.610;13.244;2024-02-16T03:15:51;9.00;99.90
41944;DHT22;27636;52.610;13.244;2024-02-16T03:20:56;8.90;99.90
41944;DHT22;27636;52.610;13.244;2024-02-16T03:26:00;9.00;99.90
41944;DHT22;27636;52.610;13.244;2024-02-16T03:31:06;9.10;99.90
41944;DHT22;27636;52.610;13.244;2024-02-16T03:36:13;9.10;99.90
41944;DHT22;27636;52.610;13.244;2024-02-16T03:41:19;9.20;99.90
41944;DHT22;27636;52.610;13.244;2024-02-16T03:46:30;9.20;99.90
41944;DHT22;27636;52.610;13.244;2024-02-16T03:51:35;9.10;99.90
41944;DHT22;27636;52.610;13.244;2024-02-16T03:56:41;9.00;99.90
41944;DHT22;27636;52.610;13.244;2024-02-16T04:01:47;9.00;99.90
41944;DHT22;27636;52.610;13.244;2024-02-16T04:06:51;8.90;99.90
41944;DHT22;27636;52.610;13.244;2024-02-16T04:11:55;9.00;99.90
41944;DHT22;27636;52.610;13.244;2024-02-16T04:17:03;9.10;99.90
41944;DHT22;27636;52.610;13.244;2024-02-16T04:22:08;9.00;99.90
41944;DHT22;27636;52.610;13.244;2024-02-16T04:27:12;9.00;99.90
41944;DHT22;27636;52.610;13.244;2024-02-16T04:32:17;9.00;99.90
41944;DHT22;27636;52.610;13.244;2024-02-16T04:37:22;9.10;99.90
41944;DHT22;27636;52.610;13.244;2024-02-16T04:42:27;9.30;99.90
41944;DHT22;27636;52.610;13.244;2024-02-16T04:47:32;9.20;99.90
41944;DHT22;27636;52.610;13.244;2024-02-16T04:52:37;9.20;99.90
41944;DHT22;27636;52.610;13.244;2024-02-16T04:57:45;9.20;99.90
41944;DHT22;27636;52.610;13.244;2024-02-16T05:02:52;9.10;99.90
41944;DHT22;27636;52.610;13.244;2024-02-16T05:07:56;9.20;99.90
41944;DHT22;27636;52.610;13.244;2024-02-16T05:13:00;9.00;99.90
41944;DHT22;27636;52.610;13.244;2024-02-16T05:18:09;8.90;99.90
41944;DHT22;27636;52.610;13.244;2024-02-16T05:23:16;8.90;99.90
41944;DHT22;27636;52.610;13.244;2024-02-16T05:28:20;8.70;99.90
41944;DHT22;27636;52.610;13.244;2024-02-16T05:33:26;8.60;99.90
41944;DHT22;27636;52.610;13.244;2024-02-16T05:38:31;8.70;99.90
41944;DHT22;27636;52.610;13.244;2024-02-16T05:43:36;8.50;99.90
41944;DHT22;27636;52.610;13.244;2024-02-16T05:48:44;8.50;99.90
41944;DHT22;27636;52.610;13.244;2024-02-16T05:53:48;8.50;99.90
41944;DHT22;27636;52.610;13.244;2024-02-16T05:58:52;8.50;99.90
41944;DHT22;27636;52.610;13.244;2024-02-16T06:03:57;8.60;99.90
41944;DHT22;27636;52.610;13.244;2024-02-16T06:09:01;8.70;99.90
41944;DHT22;27636;52.610;13.244;2024-02-16T06:14:06;8.80;99.90
41944;DHT22;27636;52.610;13.244;2024-02-16T06:19:14;8.90;99.90
41944;DHT22;27636;52.610;13.244;2024-02-16T06:24:19;9.00;99.90
41944;DHT22;27636;52.610;13.244;2024-02-16T06:29:25;8.80;99.90
41944;DHT22;27636;52.610;13.244;2024-02-16T06:34:33;8.70;99.90
41944;DHT22;27636;52.610;13.244;2024-02-16T06:39:37;8.80;99.90
41944;DHT22;27636;52.610;13.244;2024-02-16T06:44:41;8.80;99.90
41944;DHT22;27636;52.610;13.244;2024-02-16T06:49:46;8.70;99.90
41944;DHT22;27636;52.610;13.244;2024-02-16T06:54:51;8.80;99.90
41944;DHT22;27636;52.610;13.244;2024-02-16T06:59:56;8.90;99.90
41944;DHT22;27636;52.610;13.244;2024-02-16T07:05:04;9.10;99.90
41944;DHT22;27636;52.610;13.244;2024-02-16T07:10:08;9.30;99.90
41944;DHT22;27636;52.610;13.244;2024-02-16T07:15:17;9.40;99.90
41944;DHT22;27636;52.610;13.244;2024-02-16T07:20:22;9.70;99.90
41944;DHT22;27636;52.610;13.244;2024-02-16T07:25:27;9.80;99.90
41944;DHT22;27636;52.610;13.244;2024-02-16T07:30:32;10.00;99.90
41944;DHT22;27636;52.610;13.244;2024-02-16T07:35:48;10.10;99.90
41944;DHT22;27636;52.610;13.244;2024-02-16T07:40:53;10.40;99.90
41944;DHT22;27636;52.610;13.244;2024-02-16T07:45:57;10.50;99.90
41944;DHT22;27636;52.610;13.244;2024-02-16T07:51:03;10.90;99.90
41944;DHT22;27636;52.610;13.244;2024-02-16T07:56:08;11.20;99.90
41944;DHT22;27636;52.610;13.244;2024-02-16T08:01:15;11.40;99.90
41944;DHT22;27636;52.610;13.244;2024-02-16T08:06:26;11.70;99.90
41944;DHT22;27636;52.610;13.244;2024-02-16T08:11:31;12.40;99.90
41944;DHT22;27636;52.610;13.244;2024-02-16T08:16:36;13.00;99.90
41944;DHT22;27636;52.610;13.244;2024-02-16T08:21:44;13.30;99.90
41944;DHT22;27636;52.610;13.244;2024-02-16T08:26:51;13.70;99.90
41944;DHT22;27636;52.610;13.244;2024-02-16T08:31:55;13.10;99.90
41944;DHT22;27636;52.610;13.244;2024-02-16T08:37:04;12.70;99.90
41944;DHT22;27636;52.610;13.244;2024-02-16T08:42:10;12.40;99.90
41944;DHT22;27636;52.610;13.244;2024-02-16T08:47:15;12.40;99.90
41944;DHT22;27636;52.610;13.244;2024-02-16T08:52:23;12.60;99.90
41944;DHT22;27636;52.610;13.244;2024-02-16T08:57:29;12.90;99.90
41944;DHT22;27636;52.610;13.244;2024-02-16T09:02:35;13.20;99.90
41944;DHT22;27636;52.610;13.244;2024-02-16T09:07:41;13.10;99.90
41944;DHT22;27636;52.610;13.244;2024-02-16T09:12:45;13.40;99.90
41944;DHT22;27636;52.610;13.244;2024-02-16T09:17:50;14.50;99.90
41944;DHT22;27636;52.610;13.244;2024-02-16T09:22:58;15.50;99.90
41944;DHT22;27636;52.610;13.244;2024-02-16T09:28:02;15.70;99.90
41944;DHT22;27636;52.610;13.244;2024-02-16T09:33:07;15.20;99.90
41944;DHT22;27636;52.610;13.244;2024-02-16T09:38:16;15.00;99.90
41944;DHT22;27636;52.610;13.244;2024-02-16T09:43:25;15.50;99.90
41944;DHT22;27636;52.610;13.244;2024-02-16T09:48:31;15.30;99.90
41944;DHT22;27636;52.610;13.244;2024-02-16T09:53:36;15.10;99.90
41944;DHT22;27636;52.610;13.244;2024-02-16T09:58:41;15.10;99.90
41944;DHT22;27636;52.610;13.244;2024-02-16T10:03:47;15.10;99.90
41944;DHT22;27636;52.610;13.244;2024-02-16T10:08:57;15.10;99.90
41944;DHT22;27636;52.610;13.244;2024-02-16T10:14:03;15.10;99.90
41944;DHT22;27636;52.610;13.244;2024-02-16T10:19:10;15.30;99.90
41944;DHT22;27636;52.610;13.244;2024-02-16T10:24:22;15.00;99.90
41944;DHT22;27636;52.610;13.244;2024-02-16T10:29:27;14.70;99.90
41944;DHT22;27636;52.610;13.244;2024-02-16T10:34:31;14.50;99.90
41944;DHT22;27636;52.610;13.244;2024-02-16T10:39:40;14.50;99.90
41944;DHT22;27636;52.610;13.244;2024-02-16T10:44:45;14.40;99.90
41944;DHT22;27636;52.610;13.244;2024-02-16T10:49:53;14.50;99.90
41944;DHT22;27636;52.610;13.244;2024-02-16T10:54:59;14.60;99.90
41944;DHT22;27636;52.610;13.244;2024-02-16T11:00:08;14.90;99.90
41944;DHT22;27636;52.610;13.244;2024-02-16T11:05:18;15.00;99.90
41944;DHT22;27636;52.610;13.244;2024-02-16T11:10:24;14.80;99.90
41944;DHT22;27636;52.610;13.244;2024-02-16T11:15:31;14.90;99.90
41944;DHT22;27636;52.610;13.244;2024-02-16T11:20:38;15.40;99.90
41944;DHT22;27636;52.610;13.244;2024-02-16T11:25:51;15.50;99.90
41944;DHT22;27636;52.610;13.244;2024-02-16T11:30:56;15.80;99.90
41944;DHT22;27636;52.610;13.244;2024-02-16T11:36:05;15.80;99.90
41944;DHT22;27636;52.610;13.244;2024-02-16T11:41:15;15.90;99.90
41944;DHT22;27636;52.610;13.244;2024-02-16T11:46:20;16.10;99.90
41944;DHT22;27636;52.610;13.244;2024-02-16T11:51:23;16.40;99.90
41944;DHT22;27636;52.610;13.244;2024-02-16T11:56:30;16.40;99.90
41944;DHT22;27636;52.610;13.244;2024-02-16T12:01:35;16.30;99.90
41944;DHT22;27636;52.610;13.244;2024-02-16T12:06:40;16.00;99.90
41944;DHT22;27636;52.610;13.244;2024-02-16T12:11:48;15.50;99.90
41944;DHT22;27636;52.610;13.244;2024-02-16T12:16:56;15.40;99.90
41944;DHT22;27636;52.610;13.244;2024-02-16T12:22:01;15.50;99.90
41944;DHT22;27636;52.610;13.244;2024-02-16T12:27:07;15.50;99.90
41944;DHT22;27636;52.610;13.244;2024-02-16T12:32:12;15.80;99.90
41944;DHT22;27636;52.610;13.244;2024-02-16T12:37:22;15.80;99.90
41944;DHT22;27636;52.610;13.244;2024-02-16T12:42:28;16.20;99.90
41944;DHT22;27636;52.610;13.244;2024-02-16T12:47:33;16.40;99.90
41944;DHT22;27636;52.610;13.244;2024-02-16T12:52:39;16.70;99.90
41944;DHT22;27636;52.610;13.244;2024-02-16T12:57:58;16.70;99.90
41944;DHT22;27636;52.610;13.244;2024-02-16T13:03:03;16.80;99.90
41944;DHT22;27636;52.610;13.244;2024-02-16T13:08:09;16.60;99.90
41944;DHT22;27636;52.610;13.244;2024-02-16T13:13:16;16.80;99.90
41944;DHT22;27636;52.610;13.244;2024-02-16T13:18:20;17.30;99.90
41944;DHT22;27636;52.610;13.244;2024-02-16T13:23:25;17.70;99.90
41944;DHT22;27636;52.610;13.244;2024-02-16T13:28:30;18.40;99.90
41944;DHT22;27636;52.610;13.244;2024-02-16T13:33:34;19.30;98.70
41944;DHT22;27636;52.610;13.244;2024-02-16T13:38:39;19.40;97.10
41944;DHT22;27636;52.610;13.244;2024-02-16T13:43:45;19.20;96.60
41944;DHT22;27636;52.610;13.244;2024-02-16T13:48:51;18.70;96.90
41944;DHT22;27636;52.610;13.244;2024-02-16T13:53:57;17.80;98.60
41944;DHT22;27636;52.610;13.244;2024-02-16T13:59:02;17.40;99.90
41944;DHT22;27636;52.610;13.244;2024-02-16T14:04:07;17.00;99.90
41944;DHT22;27636;52.610;13.244;2024-02-16T14:09:12;16.80;99.90
41944;DHT22;27636;52.610;13.244;2024-02-16T14:14:31;16.80;99.90
41944;DHT22;27636;52.610;13.244;2024-02-16T14:19:41;16.90;99.90
41944;DHT22;27636;52.610;13.244;2024-02-16T14:24:45;16.60;99.90
41944;DHT22;27636;52.610;13.244;2024-02-16T14:29:50;16.40;99.90
41944;DHT22;27636;52.610;13.244;2024-02-16T14:34:55;16.20;99.90
41944;DHT22;27636;52.610;13.244;2024-02-16T14:39:59;16.20;99.90
41944;DHT22;27636;52.610;13.244;2024-02-16T14:45:09;16.20;99.90
41944;DHT22;27636;52.610;13.244;2024-02-16T14:50:23;16.00;99.90
41944;DHT22;27636;52.610;13.244;2024-02-16T14:55:29;16.00;99.90
41944;DHT22;27636;52.610;13.244;2024-02-16T15:00:36;15.90;99.90
41944;DHT22;27636;52.610;13.244;2024-02-16T15:05:41;15.70;99.90
41944;DHT22;27636;52.610;13.244;2024-02-16T15:10:45;15.60;99.90
41944;DHT22;27636;52.610;13.244;2024-02-16T15:15:55;15.70;99.90
41944;DHT22;27636;52.610;13.244;2024-02-16T15:20:59;15.40;99.90
41944;DHT22;27636;52.610;13.244;2024-02-16T15:26:04;15.20;99.90
41944;DHT22;27636;52.610;13.244;2024-02-16T15:31:12;15.00;99.90
41944;DHT22;27636;52.610;13.244;2024-02-16T15:36:18;15.10;99.90
41944;DHT22;27636;52.610;13.244;2024-02-16T15:41:22;15.10;99.90
41944;DHT22;27636;52.610;13.244;2024-02-16T15:46:28;15.00;99.90
41944;DHT22;27636;52.610;13.244;2024-02-16T15:51:32;15.00;99.90
41944;DHT22;27636;52.610;13.244;2024-02-16T15:56:36;15.10;99.90
41944;DHT22;27636;52.610;13.244;2024-02-16T16:01:43;14.80;99.90
41944;DHT22;27636;52.610;13.244;2024-02-16T16:06:47;14.90;99.90
41944;DHT22;27636;52.610;13.244;2024-02-16T16:11:51;14.80;99.90
41944;DHT22;27636;52.610;13.244;2024-02-16T16:16:57;14.80;99.90
41944;DHT22;27636;52.610;13.244;2024-02-16T16:22:02;14.60;99.90
41944;DHT22;27636;52.610;13.244;2024-02-16T16:27:07;14.60;99.90
41944;DHT22;27636;52.610;13.244;2024-02-16T16:32:12;14.50;99.90
41944;DHT22;27636;52.610;13.244;2024-02-16T16:37:17;14.40;99.90
41944;DHT22;27636;52.610;13.244;2024-02-16T16:42:21;14.10;99.90
41944;DHT22;27636;52.610;13.244;2024-02-16T16:47:26;13.90;99.90
41944;DHT22;27636;52.610;13.244;2024-02-16T16:52:30;13.70;99.90
41944;DHT22;27636;52.610;13.244;2024-02-16T16:57:35;13.40;99.90
41944;DHT22;27636;52.610;13.244;2024-02-16T17:02:43;13.10;99.90
41944;DHT22;27636;52.610;13.244;2024-02-16T17:07:48;12.60;99.90
41944;DHT22;27636;52.610;13.244;2024-02-16T17:12:54;12.60;99.90
41944;DHT22;27636;52.610;13.244;2024-02-16T17:18:00;12.50;99.90
41944;DHT22;27636;52.610;13.244;2024-02-16T17:23:07;12.20;99.90
41944;DHT22;27636;52.610;13.244;2024-02-16T17:28:11;12.10;99.90
41944;DHT22;27636;52.610;13.244;2024-02-16T17:33:17;12.00;99.90
41944;DHT22;27636;52.610;13.244;2024-02-16T17:38:22;11.80;99.90
41944;DHT22;27636;52.610;13.244;2024-02-16T17:43:26;11.80;99.90
41944;DHT22;27636;52.610;13.244;2024-02-16T17:48:34;11.70;99.90
41944;DHT22;27636;52.610;13.244;2024-02-16T17:53:38;11.70;99.90
41944;DHT22;27636;52.610;13.244;2024-02-16T17:58:42;11.70;99.90
41944;DHT22;27636;52.610;13.244;2024-02-16T18:03:49;11.60;99.90
41944;DHT22;27636;52.610;13.244;2024-02-16T18:08:53;11.50;99.90
41944;DHT22;27636;52.610;13.244;2024-02-16T18:13:57;11.70;99.90
41944;DHT22;27636;52.610;13.244;2024-02-16T18:19:05;11.70;99.90
41944;DHT22;27636;52.610;13.244;2024-02-16T18:24:10;11.70;99.90
41944;DHT22;27636;52.610;13.244;2024-02-16T18:29:14;11.70;99.90
41944;DHT22;27636;52.610;13.244;2024-02-16T18:34:20;11.70;99.90
41944;DHT22;27636;52.610;13.244;2024-02-16T18:39:23;12.00;99.90
41944;DHT22;27636;52.610;13.244;2024-02-16T18:44:28;12.10;99.90
41944;DHT22;27636;52.610;13.244;2024-02-16T18:49:33;12.20;99.90
41944;DHT22;27636;52.610;13.244;2024-02-16T18:54:38;12.30;99.90
41944;DHT22;27636;52.610;13.244;2024-02-16T18:59:42;12.30;99.90
41944;DHT22;27636;52.610;13.244;2024-02-16T19:04:48;12.40;99.90
41944;DHT22;27636;52.610;13.244;2024-02-16T19:09:52;12.20;99.90
41944;DHT22;27636;52.610;13.244;2024-02-16T19:14:56;12.40;99.90
41944;DHT22;27636;52.610;13.244;2024-02-16T19:20:10;12.50;99.90
41944;DHT22;27636;52.610;13.244;2024-02-16T19:25:15;12.50;99.90
41944;DHT22;27636;52.610;13.244;2024-02-16T19:30:21;12.50;99.90
41944;DHT22;27636;52.610;13.244;2024-02-16T19:35:29;12.50;99.90
41944;DHT22;27636;52.610;13.244;2024-02-16T19:40:33;12.60;99.90
41944;DHT22;27636;52.610;13.244;2024-02-16T19:45:39;12.50;99.90
41944;DHT22;27636;52.610;13.244;2024-02-16T19:50:46;12.60;99.90
41944;DHT22;27636;52.610;13.244;2024-02-16T19:55:50;12.50;99.90
41944;DHT22;27636;52.610;13.244;2024-02-16T20:00:54;12.60;99.90
41944;DHT22;27636;52.610;13.244;2024-02-16T20:06:00;12.60;99.90
41944;DHT22;27636;52.610;13.244;2024-02-16T20:11:08;12.60;99.90
41944;DHT22;27636;52.610;13.244;2024-02-16T20:16:12;12.50;99.90
41944;DHT22;27636;52.610;13.244;2024-02-16T20:21:19;12.60;99.90
41944;DHT22;27636;52.610;13.244;2024-02-16T20:26:23;12.50;99.90
41944;DHT22;27636;52.610;13.244;2024-02-16T20:31:29;12.40;99.90
41944;DHT22;27636;52.610;13.244;2024-02-16T20:36:35;12.60;99.90
41944;DHT22;27636;52.610;13.244;2024-02-16T20:41:38;12.50;99.90
41944;DHT22;27636;52.610;13.244;2024-02-16T20:46:42;12.60;99.90
41944;DHT22;27636;52.610;13.244;2024-02-16T20:51:49;12.40;99.90
41944;DHT22;27636;52.610;13.244;2024-02-16T20:56:53;12.40;99.90
41944;DHT22;27636;52.610;13.244;2024-02-16T21:01:57;12.40;99.90
41944;DHT22;27636;52.610;13.244;2024-02-16T21:07:04;12.50;99.90
41944;DHT22;27636;52.610;13.244;2024-02-16T21:12:09;12.60;99.90
41944;DHT22;27636;52.610;13.244;2024-02-16T21:17:13;12.50;99.90
41944;DHT22;27636;52.610;13.244;2024-02-16T21:22:19;12.50;99.90
41944;DHT22;27636;52.610;13.244;2024-02-16T21:27:23;12.50;99.90
41944;DHT22;27636;52.610;13.244;2024-02-16T21:32:29;12.40;99.90
41944;DHT22;27636;52.610;13.244;2024-02-16T21:37:35;12.40;99.90
41944;DHT22;27636;52.610;13.244;2024-02-16T21:42:47;12.30;99.90
41944;DHT22;27636;52.610;13.244;2024-02-16T21:47:58;12.30;99.90
41944;DHT22;27636;52.610;13.244;2024-02-16T21:53:06;12.10;99.90
41944;DHT22;27636;52.610;13.244;2024-02-16T21:58:10;12.20;99.90
41944;DHT22;27636;52.610;13.244;2024-02-16T22:03:14;12.10;99.90
41944;DHT22;27636;52.610;13.244;2024-02-16T22:08:19;12.20;99.90
41944;DHT22;27636;52.610;13.244;2024-02-16T22:13:23;12.20;99.90
41944;DHT22;27636;52.610;13.244;2024-02-16T22:18:27;12.10;99.90
41944;DHT22;27636;52.610;13.244;2024-02-16T22:23:33;12.10;99.90
41944;DHT22;27636;52.610;13.244;2024-02-16T22:28:39;12.10;99.90
41944;DHT22;27636;52.610;13.244;2024-02-16T22:33:44;12.00;99.90
41944;DHT22;27636;52.610;13.244;2024-02-16T22:38:49;12.00;99.90
41944;DHT22;27636;52.610;13.244;2024-02-16T22:43:54;12.00;99.90
41944;DHT22;27636;52.610;13.244;2024-02-16T22:48:59;12.20;99.90
41944;DHT22;27636;52.610;13.244;2024-02-16T22:54:07;12.20;99.90
41944;DHT22;27636;52.610;13.244;2024-02-16T22:59:11;12.10;99.90
41944;DHT22;27636;52.610;13.244;2024-02-16T23:04:15;12.00;99.90
41944;DHT22;27636;52.610;13.244;2024-02-16T23:09:20;12.00;99.90
41944;DHT22;27636;52.610;13.244;2024-02-16T23:14:26;11.90;99.90
41944;DHT22;27636;52.610;13.244;2024-02-16T23:19:30;11.70;99.90
41944;DHT22;27636;52.610;13.244;2024-02-16T23:24:39;11.70;99.90
41944;DHT22;27636;52.610;13.244;2024-02-16T23:29:43;11.80;99.90
41944;DHT22;27636;52.610;13.244;2024-02-16T23:34:50;11.60;99.90
41944;DHT22;27636;52.610;13.244;2024-02-16T23:39:58;11.50;99.90
41944;DHT22;27636;52.610;13.244;2024-02-16T23:45:03;11.50;99.90
41944;DHT22;27636;52.610;13.244;2024-02-16T23:50:08;11.40;99.90
41944;DHT22;27636;52.610;13.244;2024-02-16T23:55:13;11.40;99.90
